createdAt,value
2022-12-11T00:01:21.310Z,17.53
2022-12-11T00:04:06.680Z,19.63
2022-12-11T00:06:53.254Z,19.23
2022-12-11T00:09:38.485Z,19.80
2022-12-11T00:12:24.300Z,18.57
2022-12-11T00:15:10.512Z,19.53
2022-12-11T00:17:55.960Z,19.77
2022-12-11T00:20:41.715Z,18.33
2022-12-11T00:23:27.146Z,16.90
2022-12-11T00:26:15.652Z,17.40
2022-12-11T00:29:01.591Z,15.40
2022-12-11T00:31:47.087Z,18.13
2022-12-11T00:34:32.340Z,15.07
2022-12-11T00:37:17.912Z,14.23
2022-12-11T00:40:03.865Z,18.80
2022-12-11T00:42:49.524Z,15.27
2022-12-11T00:45:40.342Z,15.93
2022-12-11T00:48:25.779Z,14.93
2022-12-11T00:51:11.977Z,13.53
2022-12-11T00:53:57.687Z,15.17
2022-12-11T00:56:43.266Z,14.93
2022-12-11T00:59:29.097Z,14.93
2022-12-11T01:02:14.806Z,16.40
2022-12-11T01:05:00.125Z,17.10
2022-12-11T01:07:45.638Z,14.47
2022-12-11T01:10:32.044Z,17.20
2022-12-11T01:13:17.608Z,15.13
2022-12-11T01:16:11.024Z,14.60
2022-12-11T01:18:57.538Z,12.53
2022-12-11T01:21:42.676Z,13.17
2022-12-11T01:24:28.481Z,13.57
2022-12-11T01:27:13.823Z,15.23
2022-12-11T01:29:59.343Z,15.43
2022-12-11T01:32:44.821Z,13.27
2022-12-11T01:35:30.451Z,16.43
2022-12-11T01:38:15.756Z,14.17
2022-12-11T01:41:01.093Z,13.37
2022-12-11T01:43:56.615Z,13.40
2022-12-11T01:46:43.154Z,13.00
2022-12-11T01:49:29.517Z,15.83
2022-12-11T01:52:19.967Z,14.60
2022-12-11T01:55:06.818Z,13.50
2022-12-11T01:57:52.866Z,14.17
2022-12-11T02:00:38.116Z,13.07
2022-12-11T02:03:23.700Z,13.90
2022-12-11T02:07:01.492Z,14.47
2022-12-11T02:09:48.500Z,11.83
2022-12-11T02:13:01.704Z,12.77
2022-12-11T02:16:06.034Z,11.63
2022-12-11T02:18:55.533Z,10.75
2022-12-11T02:21:52.520Z,11.60
2022-12-11T02:24:59.160Z,11.03
2022-12-11T02:27:56.774Z,10.33
2022-12-11T02:30:45.432Z,12.47
2022-12-11T02:33:46.817Z,11.97
2022-12-11T02:36:40.520Z,12.23
2022-12-11T02:39:28.317Z,11.70
2022-12-11T02:42:16.408Z,12.00
2022-12-11T02:45:03.766Z,10.53
2022-12-11T02:47:50.522Z,12.73
2022-12-11T02:50:42.477Z,10.10
2022-12-11T02:53:31.223Z,10.73
2022-12-11T02:56:26.095Z,11.40
2022-12-11T02:59:16.045Z,13.17
2022-12-11T03:02:02.508Z,11.87
2022-12-11T03:04:48.504Z,11.83
2022-12-11T03:07:36.623Z,11.03
2022-12-11T03:10:22.972Z,12.90
2022-12-11T03:13:08.835Z,12.57
2022-12-11T03:16:29.408Z,13.30
2022-12-11T03:19:43.767Z,14.33
2022-12-11T03:22:41.233Z,15.30
2022-12-11T03:25:34.549Z,14.33
2022-12-11T03:28:37.507Z,11.73
2022-12-11T03:31:32.098Z,12.00
2022-12-11T03:37:07.656Z,11.93
2022-12-11T03:39:59.257Z,11.50
2022-12-11T03:42:48.814Z,13.37
2022-12-11T03:45:37.242Z,13.90
2022-12-11T03:48:24.789Z,13.40
2022-12-11T03:51:10.462Z,14.53
2022-12-11T03:53:56.060Z,13.47
2022-12-11T03:56:45.117Z,14.17
2022-12-11T03:59:30.487Z,14.00
2022-12-11T04:02:16.114Z,14.57
2022-12-11T04:05:01.684Z,14.77
2022-12-11T04:07:47.009Z,13.17
2022-12-11T04:10:32.592Z,13.43
2022-12-11T04:13:17.990Z,14.83
2022-12-11T04:16:03.489Z,13.10
2022-12-11T04:19:07.444Z,12.00
2022-12-11T04:22:11.269Z,13.37
2022-12-11T04:24:56.564Z,14.20
2022-12-11T04:27:50.853Z,13.20
2022-12-11T04:30:36.347Z,13.60
2022-12-11T04:33:21.804Z,13.37
2022-12-11T04:36:08.307Z,14.00
2022-12-11T04:38:53.787Z,13.33
2022-12-11T04:41:41.172Z,15.00
2022-12-11T04:44:26.408Z,13.23
2022-12-11T04:47:16.360Z,12.70
2022-12-11T04:50:02.108Z,13.20
2022-12-11T04:52:47.668Z,14.90
2022-12-11T04:55:33.148Z,12.80
2022-12-11T04:58:18.679Z,13.93
2022-12-11T05:01:08.973Z,15.10
2022-12-11T05:03:54.689Z,12.93
2022-12-11T05:06:40.112Z,13.87
2022-12-11T05:09:26.271Z,13.53
2022-12-11T05:12:11.542Z,13.30
2022-12-11T05:14:57.317Z,10.87
2022-12-11T05:17:42.830Z,11.70
2022-12-11T05:20:28.202Z,11.63
2022-12-11T05:23:13.905Z,10.63
2022-12-11T05:26:02.288Z,15.13
2022-12-11T05:28:53.353Z,13.90
2022-12-11T05:31:38.832Z,11.30
2022-12-11T05:34:24.309Z,12.50
2022-12-11T05:37:09.826Z,11.23
2022-12-11T05:39:55.373Z,11.30
2022-12-11T05:42:40.908Z,10.20
2022-12-11T05:45:26.442Z,12.37
2022-12-11T05:48:12.008Z,12.50
2022-12-11T05:51:02.378Z,9.60
2022-12-11T05:53:49.996Z,10.67
2022-12-11T05:56:36.291Z,10.37
2022-12-11T05:59:22.228Z,9.43
2022-12-11T06:02:07.567Z,10.10
2022-12-11T06:04:53.121Z,11.07
2022-12-11T06:07:38.358Z,9.67
2022-12-11T06:10:23.945Z,9.60
2022-12-11T06:13:09.421Z,11.27
2022-12-11T06:15:55.103Z,10.77
2022-12-11T06:18:43.062Z,10.03
2022-12-11T06:21:33.326Z,10.60
2022-12-11T06:24:18.658Z,10.40
2022-12-11T06:27:04.173Z,10.87
2022-12-11T06:29:49.437Z,11.37
2022-12-11T06:32:34.657Z,10.93
2022-12-11T06:35:20.180Z,9.37
2022-12-11T06:38:05.699Z,10.03
2022-12-11T06:41:01.961Z,12.97
2022-12-11T06:43:47.868Z,9.40
2022-12-11T06:46:33.493Z,9.47
2022-12-11T06:49:19.136Z,11.10
2022-12-11T06:52:06.347Z,8.80
2022-12-11T06:54:51.695Z,10.87
2022-12-11T06:57:37.290Z,11.30
2022-12-11T07:00:22.629Z,11.00
2022-12-11T07:03:08.225Z,10.10
2022-12-11T07:05:53.610Z,10.10
2022-12-11T07:08:39.470Z,13.00
2022-12-11T07:11:25.042Z,11.20
2022-12-11T07:14:10.750Z,12.37
2022-12-11T07:16:56.055Z,12.30
2022-12-11T07:19:41.421Z,12.60
2022-12-11T07:22:26.875Z,13.73
2022-12-11T07:25:12.637Z,10.93
2022-12-11T07:27:58.799Z,12.97
2022-12-11T07:30:44.372Z,13.03
2022-12-11T07:33:29.698Z,14.27
2022-12-11T07:36:16.183Z,13.53
2022-12-11T07:39:02.092Z,13.13
2022-12-11T07:41:47.465Z,11.33
2022-12-11T07:44:33.171Z,14.30
2022-12-11T07:47:18.502Z,13.40
2022-12-11T07:50:04.310Z,15.27
2022-12-11T07:52:49.667Z,11.43
2022-12-11T07:55:35.494Z,13.03
2022-12-11T07:58:21.114Z,13.07
2022-12-11T08:01:12.665Z,14.43
2022-12-11T08:03:58.033Z,12.50
2022-12-11T08:06:43.784Z,12.40
2022-12-11T08:09:29.233Z,13.53
2022-12-11T08:12:15.181Z,13.83
2022-12-11T08:15:00.821Z,12.53
2022-12-11T08:17:46.423Z,14.40
2022-12-11T08:20:31.844Z,15.03
2022-12-11T08:23:17.140Z,13.07
2022-12-11T08:26:05.127Z,13.77
2022-12-11T08:28:50.534Z,12.53
2022-12-11T08:31:36.124Z,13.53
2022-12-11T08:34:21.520Z,13.97
2022-12-11T08:37:07.068Z,12.60
2022-12-11T08:39:52.703Z,12.77
2022-12-11T08:42:38.863Z,12.40
2022-12-11T08:45:24.671Z,14.07
2022-12-11T08:48:10.163Z,12.03
2022-12-11T08:50:55.515Z,11.87
2022-12-11T08:53:41.399Z,15.37
2022-12-11T08:56:27.546Z,13.50
2022-12-11T08:59:12.896Z,15.43
2022-12-11T09:01:58.640Z,13.57
2022-12-11T09:04:44.030Z,11.87
2022-12-11T09:07:29.508Z,13.03
2022-12-11T09:10:14.809Z,13.37
2022-12-11T09:13:00.200Z,13.30
2022-12-11T09:15:46.056Z,13.77
2022-12-11T09:18:31.590Z,14.27
2022-12-11T09:21:20.525Z,12.70
2022-12-11T09:24:06.293Z,13.60
2022-12-11T09:26:52.017Z,14.00
2022-12-11T09:29:38.706Z,13.50
2022-12-11T09:32:23.916Z,13.63
2022-12-11T09:35:10.227Z,15.40
2022-12-11T09:37:56.074Z,13.70
2022-12-11T09:40:43.371Z,13.17
2022-12-11T09:43:46.608Z,12.93
2022-12-11T09:46:34.527Z,14.10
2022-12-11T09:49:32.158Z,14.63
2022-12-11T09:52:17.600Z,13.13
2022-12-11T09:55:16.391Z,13.97
2022-12-11T09:58:20.916Z,13.70
2022-12-11T10:01:11.776Z,13.88
2022-12-11T10:03:59.882Z,14.13
2022-12-11T10:06:55.935Z,14.97
2022-12-11T10:10:05.187Z,13.43
2022-12-11T10:12:53.276Z,12.90
2022-12-11T10:15:52.403Z,15.00
2022-12-11T10:18:38.648Z,15.37
2022-12-11T10:21:25.257Z,14.43
2022-12-11T10:25:09.571Z,15.03
2022-12-11T10:27:43.567Z,14.37
2022-12-11T10:30:38.009Z,14.47
2022-12-11T10:33:50.504Z,15.40
2022-12-11T10:36:38.903Z,15.87
2022-12-11T10:39:24.325Z,11.93
2022-12-11T10:42:18.409Z,16.10
2022-12-11T10:45:05.937Z,14.60
2022-12-11T10:48:01.447Z,14.10
2022-12-11T10:51:03.911Z,12.33
2022-12-11T10:53:55.790Z,13.73
2022-12-11T10:56:41.328Z,14.73
2022-12-11T10:59:46.298Z,14.80
2022-12-11T11:02:37.614Z,17.33
2022-12-11T11:05:30.954Z,13.17
2022-12-11T11:08:20.194Z,16.83
2022-12-11T11:11:05.942Z,14.80
2022-12-11T11:13:51.973Z,15.47
2022-12-11T11:16:39.662Z,15.10
2022-12-11T11:19:29.430Z,17.10
2022-12-11T11:22:17.995Z,14.80
2022-12-11T11:25:05.238Z,17.07
2022-12-11T11:27:54.985Z,14.87
2022-12-11T11:30:42.527Z,15.33
2022-12-11T11:33:28.720Z,17.47
2022-12-11T11:36:24.342Z,15.87
2022-12-11T11:39:12.800Z,16.47
2022-12-11T11:42:40.586Z,16.27
2022-12-11T11:45:43.744Z,17.03
2022-12-11T11:48:48.816Z,15.73
2022-12-11T11:51:39.615Z,15.98
2022-12-11T11:54:36.646Z,17.33
2022-12-11T11:57:35.486Z,15.57
2022-12-11T12:00:33.126Z,15.87
2022-12-11T12:03:23.246Z,15.40
2022-12-11T12:06:28.201Z,17.93
2022-12-11T12:09:19.884Z,16.58
2022-12-11T12:12:24.751Z,18.93
2022-12-11T12:15:30.851Z,18.27
2022-12-11T12:18:22.672Z,17.87
2022-12-11T12:21:36.339Z,18.60
2022-12-11T12:24:43.509Z,18.73
2022-12-11T12:27:52.026Z,17.17
2022-12-11T12:31:03.338Z,17.27
2022-12-11T12:34:29.480Z,18.87
2022-12-11T12:37:30.327Z,17.50
2022-12-11T12:40:15.941Z,18.50
2022-12-11T12:43:26.588Z,18.17
2022-12-11T12:46:30.209Z,16.43
2022-12-11T12:49:31.431Z,16.33
2022-12-11T12:52:24.716Z,18.77
2022-12-11T12:55:22.847Z,17.13
2022-12-11T12:58:28.183Z,17.73
2022-12-11T13:01:13.525Z,17.43
2022-12-11T13:04:06.449Z,17.20
2022-12-11T13:06:53.279Z,17.70
2022-12-11T13:09:39.104Z,18.37
2022-12-11T13:12:41.171Z,16.23
2022-12-11T13:15:43.846Z,18.27
2022-12-11T13:18:37.218Z,15.97
2022-12-11T13:21:38.410Z,23.63
2022-12-11T13:24:26.071Z,19.50
2022-12-11T13:27:23.562Z,18.90
2022-12-11T13:30:15.308Z,19.67
2022-12-11T13:33:15.761Z,19.27
2022-12-11T13:36:24.743Z,19.50
2022-12-11T13:39:21.445Z,19.40
2022-12-11T13:42:20.838Z,17.33
2022-12-11T13:45:18.182Z,18.40
2022-12-11T13:48:15.443Z,19.00
2022-12-11T13:51:03.393Z,18.13
2022-12-11T13:53:49.631Z,20.13
2022-12-11T13:56:35.522Z,17.63
2022-12-11T13:59:26.459Z,20.13
2022-12-11T14:02:32.504Z,22.03
2022-12-11T14:05:18.909Z,19.20
2022-12-11T14:08:11.294Z,19.43
2022-12-11T14:10:57.339Z,18.67
2022-12-11T14:13:43.661Z,20.23
2022-12-11T14:16:29.687Z,20.20
2022-12-11T14:19:19.102Z,20.10
2022-12-11T14:22:07.281Z,19.17
2022-12-11T14:24:58.854Z,22.97
2022-12-11T14:27:53.206Z,20.20
2022-12-11T14:30:48.338Z,19.08
2022-12-11T14:33:49.365Z,19.33
2022-12-11T14:36:36.379Z,20.13
2022-12-11T14:40:01.247Z,19.07
2022-12-11T14:42:57.101Z,19.10
2022-12-11T14:45:48.579Z,20.40
2022-12-11T14:48:45.757Z,19.47
2022-12-11T14:51:35.938Z,21.17
2022-12-11T14:54:45.120Z,21.47
2022-12-11T14:57:32.333Z,23.73
2022-12-11T15:00:30.678Z,21.50
2022-12-11T15:03:34.317Z,19.97
2022-12-11T15:06:33.091Z,16.80
2022-12-11T15:09:28.255Z,20.50
2022-12-11T15:12:19.819Z,19.03
2022-12-11T15:15:07.633Z,21.50
2022-12-11T15:17:53.253Z,19.63
2022-12-11T15:20:41.716Z,19.70
2022-12-11T15:23:28.747Z,19.27
2022-12-11T15:26:13.982Z,24.13
2022-12-11T15:29:02.154Z,22.63
2022-12-11T15:31:47.687Z,22.67
2022-12-11T15:34:35.485Z,19.57
2022-12-11T15:37:25.775Z,22.60
2022-12-11T15:40:12.140Z,21.47
2022-12-11T15:43:01.655Z,22.40
2022-12-11T15:45:47.038Z,21.03
2022-12-11T15:48:32.926Z,21.00
2022-12-11T15:51:18.583Z,19.97
2022-12-11T15:54:04.558Z,24.33
2022-12-11T15:56:50.152Z,20.37
2022-12-11T15:59:35.935Z,20.80
2022-12-11T16:02:21.652Z,21.83
2022-12-11T16:05:07.634Z,23.70
2022-12-11T16:07:54.759Z,25.43
2022-12-11T16:10:42.223Z,21.83
2022-12-11T16:13:27.772Z,22.70
2022-12-11T16:16:13.265Z,24.53
2022-12-11T16:18:59.279Z,20.77
2022-12-11T16:21:44.934Z,20.47
2022-12-11T16:24:30.564Z,20.13
2022-12-11T16:27:21.414Z,24.23
2022-12-11T16:30:10.818Z,23.93
2022-12-11T16:32:56.334Z,22.47
2022-12-11T16:35:43.007Z,23.13
2022-12-11T16:38:28.625Z,21.73
2022-12-11T16:41:14.217Z,22.37
2022-12-11T16:44:01.636Z,21.27
2022-12-11T16:46:47.395Z,23.23
2022-12-11T16:49:33.211Z,24.83
2022-12-11T16:52:22.104Z,24.77
2022-12-11T16:55:10.159Z,23.40
2022-12-11T16:57:56.078Z,24.60
2022-12-11T17:00:43.827Z,25.87
2022-12-11T17:03:30.782Z,25.60
2022-12-11T17:06:18.597Z,22.67
2022-12-11T17:09:04.463Z,24.80
2022-12-11T17:11:50.311Z,22.13
2022-12-11T17:14:35.992Z,19.20
2022-12-11T17:17:25.299Z,19.17
2022-12-11T17:20:11.515Z,25.43
2022-12-11T17:22:57.397Z,22.03
2022-12-11T17:25:45.179Z,20.90
2022-12-11T17:28:32.127Z,21.73
2022-12-11T17:31:19.289Z,24.27
2022-12-11T17:34:05.363Z,21.63
2022-12-11T17:36:51.434Z,33.00
2022-12-11T17:39:37.786Z,31.43
2022-12-11T17:42:23.306Z,44.40
2022-12-11T17:45:09.313Z,35.67
2022-12-11T17:47:55.045Z,49.80
2022-12-11T17:50:46.809Z,46.67
2022-12-11T17:53:32.894Z,32.63
2022-12-11T17:56:18.544Z,44.17
2022-12-11T17:59:04.125Z,39.53
2022-12-11T18:01:50.056Z,41.63
2022-12-11T18:04:38.526Z,43.07
2022-12-11T18:07:25.294Z,36.47
2022-12-11T18:10:10.610Z,35.70
2022-12-11T18:12:55.838Z,29.83
2022-12-11T18:15:41.943Z,23.77
2022-12-11T18:18:27.533Z,25.50
2022-12-11T18:21:14.477Z,23.33
2022-12-11T18:24:00.528Z,22.93
2022-12-11T18:26:46.361Z,27.70
2022-12-11T18:29:31.921Z,29.63
2022-12-11T18:32:17.081Z,31.07
2022-12-11T18:35:03.251Z,29.37
2022-12-11T18:37:48.868Z,31.90
2022-12-11T18:40:34.426Z,30.27
2022-12-11T18:43:19.690Z,33.77
2022-12-11T18:46:07.049Z,29.20
2022-12-11T18:48:52.376Z,33.30
2022-12-11T18:51:37.535Z,30.43
2022-12-11T18:54:23.186Z,27.10
2022-12-11T18:57:08.785Z,31.83
2022-12-11T18:59:54.725Z,26.40
2022-12-11T19:02:40.306Z,33.80
2022-12-11T19:05:25.837Z,32.47
2022-12-11T19:08:13.903Z,29.00
2022-12-11T19:10:59.413Z,29.07
2022-12-11T19:13:45.476Z,30.77
2022-12-11T19:16:34.164Z,28.97
2022-12-11T19:19:21.704Z,34.57
2022-12-11T19:22:07.186Z,32.20
2022-12-11T19:24:52.924Z,32.40
2022-12-11T19:27:38.506Z,29.80
2022-12-11T19:30:24.766Z,31.27
2022-12-11T19:33:10.611Z,27.20
2022-12-11T19:36:09.315Z,31.50
2022-12-11T19:39:01.093Z,29.60
2022-12-11T19:41:48.014Z,25.00
2022-12-11T19:44:33.187Z,26.23
2022-12-11T19:47:18.777Z,26.40
2022-12-11T19:50:04.642Z,27.40
2022-12-11T19:52:49.959Z,26.50
2022-12-11T19:55:35.224Z,30.60
2022-12-11T19:58:20.693Z,29.27
2022-12-11T20:01:07.499Z,32.77
2022-12-11T20:03:54.359Z,30.93
2022-12-11T20:06:42.967Z,31.53
2022-12-11T20:09:28.454Z,26.10
2022-12-11T20:12:13.762Z,32.00
2022-12-11T20:14:59.407Z,29.87
2022-12-11T20:17:44.762Z,36.17
2022-12-11T20:20:30.291Z,33.60
2022-12-11T20:23:16.281Z,28.00
2022-12-11T20:26:16.874Z,28.40
2022-12-11T20:29:05.208Z,31.00
2022-12-11T20:31:51.665Z,28.70
2022-12-11T20:34:38.242Z,27.17
2022-12-11T20:37:25.883Z,28.07
2022-12-11T20:40:12.020Z,34.90
2022-12-11T20:42:57.787Z,29.37
2022-12-11T20:45:52.359Z,28.20
2022-12-11T20:48:38.970Z,29.15
2022-12-11T20:51:26.597Z,31.40
2022-12-11T20:54:12.002Z,29.83
2022-12-11T20:56:57.309Z,33.67
2022-12-11T20:59:44.454Z,36.47
2022-12-11T21:02:30.934Z,37.27
2022-12-11T21:05:16.745Z,34.13
2022-12-11T21:08:02.364Z,30.47
2022-12-11T21:10:50.338Z,30.00
2022-12-11T21:13:36.904Z,34.00
2022-12-11T21:16:22.981Z,33.10
2022-12-11T21:19:13.681Z,38.10
2022-12-11T21:22:02.548Z,40.77
2022-12-11T21:24:48.415Z,39.97
2022-12-11T21:27:34.458Z,40.33
2022-12-11T21:30:19.932Z,38.27
2022-12-11T21:33:05.631Z,35.67
2022-12-11T21:35:55.945Z,40.43
2022-12-11T21:38:43.697Z,34.97
2022-12-11T21:41:29.134Z,41.67
2022-12-11T21:45:25.902Z,37.67
2022-12-11T21:47:21.086Z,34.63
2022-12-11T21:50:06.901Z,33.83
2022-12-11T21:52:52.392Z,31.40
2022-12-11T21:55:41.544Z,30.60
2022-12-11T21:58:27.126Z,34.33
2022-12-11T22:01:29.186Z,39.17
2022-12-11T22:04:16.051Z,33.37
2022-12-11T22:07:01.557Z,31.10
2022-12-11T22:09:47.197Z,34.47
2022-12-11T22:12:32.757Z,36.03
2022-12-11T22:15:18.120Z,37.53
2022-12-11T22:18:04.162Z,35.37
2022-12-11T22:20:49.716Z,38.97
2022-12-11T22:23:35.361Z,43.23
2022-12-11T22:26:25.839Z,40.97
2022-12-11T22:29:11.465Z,37.73
2022-12-11T22:31:57.266Z,41.20
2022-12-11T22:34:42.735Z,38.00
2022-12-11T22:37:29.180Z,36.80
2022-12-11T22:40:15.385Z,37.63
2022-12-11T22:43:00.807Z,35.60
2022-12-11T22:45:46.257Z,34.90
2022-12-11T22:48:31.827Z,32.03
2022-12-11T22:51:17.862Z,36.83
2022-12-11T22:54:04.327Z,32.73
2022-12-11T22:56:50.351Z,41.40
2022-12-11T22:59:38.964Z,37.03
2022-12-11T23:02:24.661Z,35.70
2022-12-11T23:05:12.009Z,35.63
2022-12-11T23:07:57.801Z,35.90
2022-12-11T23:10:43.357Z,34.53
2022-12-11T23:13:28.722Z,37.07
2022-12-11T23:16:14.483Z,36.97
2022-12-11T23:19:00.927Z,31.20
2022-12-11T23:21:46.390Z,30.80
2022-12-11T23:24:31.976Z,31.73
2022-12-11T23:27:17.278Z,35.87
2022-12-11T23:30:02.471Z,31.53
2022-12-11T23:32:48.142Z,32.80
2022-12-11T23:35:33.785Z,36.00
2022-12-11T23:38:19.142Z,34.57
2022-12-11T23:41:09.100Z,33.73
2022-12-11T23:43:54.827Z,27.80
2022-12-11T23:46:42.607Z,33.20
2022-12-11T23:49:27.811Z,25.60
2022-12-11T23:52:13.391Z,33.13
2022-12-11T23:54:58.883Z,30.17
2022-12-11T23:57:44.505Z,34.03
